Terminal Aerodrome Forecast
Issued by NWS Cheyenne, WY

Home | Current Version | Previous Version | Text Only | Print | Product List | Glossary On
Versions: 1 2 3 4 5 6 7 8 9 10 11 12 13 14 15
000
FTUS45 KCYS 211145
TAFCYS
TAF
KCYS 211145Z 2112/2212 25005KT P6SM SCT200
     FM220000 31007KT P6SM BKN100 BKN200
     FM220800 30011G18KT P6SM BKN100=

USA.gov is the U.S. government's official web portal to all federal, state and local government web resources and services.